Tuesday, November 21, 2017, 10:43 AM EST
Back to Local

KPWM, Portland International Jetport

Location: Portland, ME, United States Lat: 43.65
Local Time: 10:43 AM EST (15:43 GMT) Lon: -70.3
Time Zone: US/Eastern Elev: 75 ft

Show me the last for .
Show Decoded

2017-11-21 09:51 METAR KPWM 211451Z 20007KT 10SM FEW250 04/M03 A3007 RMK AO2 SLP182 T00441028
                 58006 =
2017-11-21 08:51 METAR KPWM 211351Z 20006KT 10SM FEW250 02/M03 A3008 RMK AO2 SLP187 T00221033 =
2017-11-21 07:51 METAR KPWM 211251Z VRB03KT 10SM FEW250 M02/M06 A3009 RMK AO2 SLP191 T10171056 =
2017-11-21 06:51 METAR KPWM 211151Z VRB03KT 10SM FEW050 FEW250 M04/M07 A3008 RMK AO2 SLP188
                 T10441072 11022 21044 51008 =
2017-11-21 05:51 METAR KPWM 211051Z VRB03KT 10SM FEW050 M03/M07 A3007 RMK AO2 SLP184 T10331072 =
2017-11-21 04:51 METAR KPWM 210951Z VRB04KT 10SM FEW048 M03/M07 A3007 RMK AO2 SLP184 T10331067 =
2017-11-21 03:51 METAR KPWM 210851Z AUTO 00000KT 10SM SCT048 M02/M07 A3006 RMK AO2 SLP180
                 T10221067 50003 =
2017-11-21 02:51 METAR KPWM 210751Z AUTO VRB03KT 10SM SCT034 OVC050 M02/M07 A3007 RMK AO2 SLP184
                 T10221067 =
2017-11-21 01:51 METAR KPWM 210651Z AUTO VRB04KT 10SM BKN055 M03/M07 A3007 RMK AO2 SLP184
                 T10331072 =
2017-11-21 00:51 METAR KPWM 210551Z AUTO VRB03KT 10SM FEW035 BKN050 M03/M08 A3005 RMK AO2 SLP177
                 T10281083 10006 21033 51017 =
2017-11-20 23:51 METAR KPWM 210451Z 13005KT 10SM CLR M01/M08 A3004 RMK AO2 SLP172 LAST T10111083
                 400391033 =
2017-11-20 22:51 METAR KPWM 210351Z 13010KT 10SM CLR M02/M07 A3002 RMK AO2 SLP166 T10221072 =
2017-11-20 21:51 METAR KPWM 210251Z 21004KT 10SM CLR M02/M07 A3000 RMK AO2 SLP159 T10171072 53025
                 =
2017-11-20 20:51 METAR KPWM 210151Z 27005KT 10SM CLR M01/M07 A2996 RMK AO2 SLP148 T10111072 =
2017-11-20 19:51 METAR KPWM 210051Z 26011G18KT 10SM CLR 01/M06 A2995 RMK AO2 SLP143 T00061061 =
2017-11-20 18:51 METAR KPWM 202351Z 24012G17KT 10SM CLR 01/M06 A2992 RMK AO2 SLP134 T00061061
                 10033 21006 53023 =
2017-11-20 17:51 METAR KPWM 202251Z 26013KT 10SM FEW047 SCT090 01/M08 A2990 RMK AO2 SLP127
                 T00061078 =
2017-11-20 16:51 METAR KPWM 202151Z 26008KT 10SM SCT060 00/M08 A2987 RMK AO2 SLP117 T00001083 =
2017-11-20 15:51 METAR KPWM 202051Z 26012G24KT 10SM SCT060 SCT095 02/M09 A2985 RMK AO2 PK WND
                 25027/2006 SLP110 T00171094 53021 =
2017-11-20 14:51 METAR KPWM 201951Z 26019G29KT 10SM FEW070 03/M11 A2983 RMK AO2 PK WND 24029/1950
                 SLP102 T00281106 =
2017-11-20 13:51 METAR KPWM 201851Z 27019G29KT 10SM FEW070 03/M11 A2981 RMK AO2 PK WND 28032/1841
                 SLP095 T00331111 =
2017-11-20 12:51 METAR KPWM 201751Z 27015G26KT 10SM FEW070 03/M11 A2979 RMK AO2 PK WND 25028/1741
                 SLP090 T00331111 10039 21011 53001 =
2017-11-20 11:51 METAR KPWM 201651Z 31014G25KT 10SM FEW055 03/M12 A2979 RMK AO2 PK WND 27028/1602
                 SLP090 T00281122 =
2017-11-20 10:51 METAR KPWM 201551Z 26018G28KT 10SM BKN055 02/M11 A2979 RMK AO2 PK WND 25030/1514
                 SLP087 T00171106 =

Support USWX by starting your Amazon purchase here.